Station Historical Data
Daily Summary for January 15, 2017 Units:  Metric    English   Both
Next Day »
Daily Weekly Monthly Yearly Custom
  High: Low: Average:
Temperature: 6.3 °C 0.7 °C 2.6 °C
Dew Point: 3.8 °C -0.6 °C 1.3 °C
Humidity: 100% 80% 92%
Wind Speed: 6.4km/h 0km/h 0.5km/h
Wind Gust: 14.5km/h - -
Wind- - SSE
Pressure: 1023.6 hPa 1020.9 hPa -
Precipitation: 0 mm    
Historical Graphs
 
 
Tabular Data for January 15, 2017
Time Temperature Dew Point Pressure Wind Wind Speed Wind Gust Humidity Rainfall Rate (Hourly) solar Conditions
00:00 2.6 °C 1.7 °C 1022.2 hPa Calm     94% 0 mm 0.00 W/m2
00:05 2.6 °C 1.6 °C 1022.2 hPa Calm     93% 0 mm 0.00 W/m2
00:10 2.5 °C 1.5 °C 1022.2 hPa Calm     93% 0 mm 0.00 W/m2
00:15 2.4 °C 1.4 °C 1022.2 hPa Calm     93% 0 mm 0.00 W/m2
00:20 2.4 °C 1.6 °C 1022.2 hPa Calm     94% 0 mm 0.00 W/m2
00:25 2.4 °C 1.6 °C 1021.9 hPa Calm     94% 0 mm 0.00 W/m2
00:30 2.4 °C 1.5 °C 1021.9 hPa Calm     94% 0 mm 0.00 W/m2
00:35 2.4 °C 1.5 °C 1021.9 hPa Calm     94% 0 mm 0.00 W/m2
00:40 2.4 °C 1.5 °C 1021.9 hPa Calm     94% 0 mm 0.00 W/m2
00:45 2.4 °C 1.6 °C 1021.9 hPa Calm     94% 0 mm 0.00 W/m2
00:51 2.5 °C 1.6 °C 1021.9 hPa Calm     94% 0 mm 0.00 W/m2
00:56 2.4 °C 1.6 °C 1021.9 hPa Calm     94% 0 mm 0.00 W/m2
01:01 2.4 °C 1.6 °C 1021.9 hPa Calm     94% 0 mm 0.00 W/m2
01:06 2.3 °C 1.6 °C 1021.9 hPa Calm     95% 0 mm 0.00 W/m2
01:11 2.3 °C 1.6 °C 1021.9 hPa Calm     95% 0 mm 0.00 W/m2
01:16 2.1 °C 1.2 °C 1021.9 hPa Calm     94% 0 mm 0.00 W/m2
01:21 2.1 °C 1.2 °C 1021.9 hPa Calm     94% 0 mm 0.00 W/m2
01:26 2 °C 1.1 °C 1021.6 hPa Calm     94% 0 mm 0.00 W/m2
01:31 1.9 °C 1.1 °C 1021.6 hPa Calm     94% 0 mm 0.00 W/m2
01:36 1.8 °C 1 °C 1021.9 hPa Calm     94% 0 mm 0.00 W/m2
01:41 1.8 °C 0.9 °C 1021.9 hPa Calm     94% 0 mm 0.00 W/m2
01:46 1.8 °C 0.9 °C 1021.9 hPa Calm     94% 0 mm 0.00 W/m2
01:51 1.7 °C 0.8 °C 1021.6 hPa Calm     94% 0 mm 0.00 W/m2
01:56 1.7 °C 0.8 °C 1021.9 hPa Calm     94% 0 mm 0.00 W/m2
02:01 1.7 °C 0.9 °C 1021.9 hPa Calm     95% 0 mm 0.00 W/m2
02:06 1.7 °C 0.9 °C 1021.9 hPa Calm     95% 0 mm 0.00 W/m2
02:11 1.7 °C 0.9 °C 1021.9 hPa Calm     95% 0 mm 0.00 W/m2
02:16 1.7 °C 0.9 °C 1021.9 hPa Calm     95% 0 mm 0.00 W/m2
02:21 1.7 °C 0.9 °C 1021.9 hPa Calm     95% 0 mm 0.00 W/m2
02:26 1.7 °C 1 °C 1021.9 hPa Calm     95% 0 mm 0.00 W/m2
02:31 1.7 °C 1 °C 1021.9 hPa Calm     95% 0 mm 0.00 W/m2
02:36 1.7 °C 1 °C 1022.2 hPa Calm     95% 0 mm 0.00 W/m2
02:41 1.8 °C 1.1 °C 1022.2 hPa Calm     95% 0 mm 0.00 W/m2
02:46 1.8 °C 1.1 °C 1022.2 hPa Calm     95% 0 mm 0.00 W/m2
02:51 1.8 °C 1.1 °C 1022.2 hPa Calm     95% 0 mm 0.00 W/m2
02:56 1.8 °C 1.1 °C 1022.2 hPa Calm     95% 0 mm 0.00 W/m2
03:01 1.8 °C 1.1 °C 1022.2 hPa Calm     95% 0 mm 0.00 W/m2
03:06 1.8 °C 1.1 °C 1022.2 hPa Calm     95% 0 mm 0.00 W/m2
03:11 1.8 °C 1.1 °C 1022.2 hPa Calm     95% 0 mm 0.00 W/m2
03:16 1.8 °C 1.1 °C 1021.9 hPa Calm   3.2 km/h 95% 0 mm 0.00 W/m2
03:21 1.7 °C 1 °C 1022.2 hPa Calm     95% 0 mm 0.00 W/m2
03:26 1.7 °C 1 °C 1021.9 hPa Calm     95% 0 mm 0.00 W/m2
03:31 1.7 °C 0.9 °C 1021.9 hPa Calm     95% 0 mm 0.00 W/m2
03:36 1.7 °C 0.9 °C 1021.9 hPa Calm     95% 0 mm 0.00 W/m2
03:41 1.7 °C 0.9 °C 1021.9 hPa Calm     95% 0 mm 0.00 W/m2
03:46 1.6 °C 0.9 °C 1021.9 hPa Calm     95% 0 mm 0.00 W/m2
03:51 1.6 °C 0.9 °C 1021.9 hPa Calm     95% 0 mm 0.00 W/m2
03:56 1.5 °C 0.8 °C 1021.9 hPa Calm     95% 0 mm 0.00 W/m2
04:01 1.5 °C 0.8 °C 1021.9 hPa Calm     95% 0 mm 0.00 W/m2
04:06 1.4 °C 0.7 °C 1021.9 hPa Calm     95% 0 mm 0.00 W/m2
04:11 1.4 °C 0.7 °C 1021.9 hPa Calm     95% 0 mm 0.00 W/m2
04:16 1.4 °C 0.7 °C 1021.9 hPa Calm     95% 0 mm 0.00 W/m2
04:21 1.3 °C 0.6 °C 1021.9 hPa Calm     95% 0 mm 0.00 W/m2
04:26 1.3 °C 0.6 °C 1021.9 hPa Calm     95% 0 mm 0.00 W/m2
04:31 1.3 °C 0.6 °C 1021.9 hPa Calm     95% 0 mm 0.00 W/m2
04:36 1.3 °C 0.4 °C 1021.9 hPa Calm     94% 0 mm 0.00 W/m2
04:41 1.2 °C 0.4 °C 1021.9 hPa Calm     94% 0 mm 0.00 W/m2
04:46 1.2 °C 0.4 °C 1021.9 hPa Calm     94% 0 mm 0.00 W/m2
04:51 1.2 °C 0.3 °C 1021.9 hPa Calm     94% 0 mm 0.00 W/m2
04:56 1.1 °C 0.2 °C 1021.9 hPa Calm     94% 0 mm 0.00 W/m2
05:01 1.1 °C 0.2 °C 1021.9 hPa Calm     94% 0 mm 0.00 W/m2
05:06 1 °C 0.2 °C 1021.9 hPa Calm     94% 0 mm 0.00 W/m2
05:11 0.9 °C 0.1 °C 1021.9 hPa Calm     94% 0 mm 0.00 W/m2
05:17 0.8 °C -0.1 °C 1021.9 hPa East 1.6 km/h 8 km/h 94% 0 mm 0.00 W/m2
05:22 0.8 °C -0.1 °C 1021.9 hPa East 1.6 km/h 3.2 km/h 94% 0 mm 0.00 W/m2
05:27 0.7 °C -0.1 °C 1021.6 hPa Calm   1.6 km/h 94% 0 mm 0.00 W/m2
05:32 0.8 °C -0.1 °C 1021.6 hPa Calm     94% 0 mm 0.00 W/m2
05:37 0.8 °C -0.1 °C 1021.6 hPa Calm     94% 0 mm 0.00 W/m2
05:42 0.8 °C -0.1 °C 1021.6 hPa East 1.6 km/h 9.7 km/h 94% 0 mm 0.00 W/m2
05:47 0.8 °C -0.1 °C 1021.9 hPa East 1.6 km/h 6.4 km/h 94% 0 mm 0.00 W/m2
05:52 0.8 °C 0 °C 1021.9 hPa East 3.2 km/h 6.4 km/h 94% 0 mm 0.00 W/m2
05:57 0.8 °C 0 °C 1021.6 hPa East 1.6 km/h 6.4 km/h 94% 0 mm 0.00 W/m2
06:02 0.9 °C 0.1 °C 1021.6 hPa Calm   11.3 km/h 94% 0 mm 0.00 W/m2
06:07 0.9 °C 0.1 °C 1021.6 hPa East 3.2 km/h 6.4 km/h 94% 0 mm 0.00 W/m2
06:12 0.9 °C 0.1 °C 1021.9 hPa Calm   1.6 km/h 94% 0 mm 0.00 W/m2
06:17 1 °C 0 °C 1021.6 hPa Calm   1.6 km/h 93% 0 mm 0.00 W/m2
06:22 1 °C 0 °C 1021.9 hPa East 3.2 km/h 8 km/h 93% 0 mm 0.00 W/m2
06:27 1 °C 0 °C 1021.9 hPa Calm     93% 0 mm 0.00 W/m2
06:32 1.1 °C -0.1 °C 1021.6 hPa Calm     92% 0 mm 0.00 W/m2
06:37 1.1 °C -0.1 °C 1021.9 hPa Calm     92% 0 mm 0.00 W/m2
06:42 1.1 °C -0.1 °C 1021.9 hPa Calm   8 km/h 92% 0 mm 0.00 W/m2
06:47 1.1 °C -0.2 °C 1021.9 hPa Calm   3.2 km/h 91% 0 mm 0.00 W/m2
06:52 1.1 °C -0.2 °C 1021.6 hPa Calm   6.4 km/h 91% 0 mm 0.00 W/m2
06:57 1.1 °C -0.2 °C 1021.6 hPa Calm   8 km/h 91% 0 mm 0.00 W/m2
07:02 1.1 °C -0.2 °C 1021.6 hPa Calm     91% 0 mm 0.00 W/m2
07:07 1.1 °C -0.2 °C 1021.6 hPa Calm   1.6 km/h 91% 0 mm 0.00 W/m2
07:12 1.1 °C -0.1 °C 1021.6 hPa East 1.6 km/h 8 km/h 92% 0 mm 0.00 W/m2
07:17 1.1 °C -0.1 °C 1021.6 hPa East 3.2 km/h 14.5 km/h 92% 0 mm 5.00 W/m2
07:22 1 °C -0.2 °C 1021.6 hPa East 1.6 km/h 6.4 km/h 92% 0 mm 7.00 W/m2
07:27 1 °C -0.2 °C 1021.6 hPa Calm   11.3 km/h 92% 0 mm 11.00 W/m2
07:32 0.9 °C -0.3 °C 1021.9 hPa East 1.6 km/h 6.4 km/h 91% 0 mm 14.00 W/m2
07:37 0.9 °C -0.2 °C 1021.9 hPa East 6.4 km/h 6.4 km/h 92% 0 mm 16.00 W/m2
07:42 0.8 °C -0.4 °C 1021.9 hPa Calm     91% 0 mm 21.00 W/m2
07:47 0.7 °C -0.6 °C 1021.9 hPa Calm     91% 0 mm 30.00 W/m2
07:52 0.7 °C -0.6 °C 1021.9 hPa Calm     91% 0 mm 40.00 W/m2
07:57 0.7 °C -0.6 °C 1021.9 hPa Calm     91% 0 mm 54.00 W/m2
08:02 0.7 °C -0.5 °C 1021.9 hPa Calm     92% 0 mm 70.00 W/m2
08:07 0.7 °C -0.6 °C 1021.9 hPa Calm     91% 0 mm 84.00 W/m2
08:12 0.7 °C -0.6 °C 1022.2 hPa Calm     91% 0 mm 105.00 W/m2
08:17 0.8 °C -0.5 °C 1022.2 hPa Calm     91% 0 mm 116.00 W/m2
08:22 0.8 °C -0.4 °C 1022.2 hPa Calm     91% 0 mm 134.00 W/m2
08:27 0.9 °C -0.2 °C 1022.2 hPa Calm     92% 0 mm 160.00 W/m2
08:32 0.9 °C -0.2 °C 1022.2 hPa Calm     92% 0 mm 174.00 W/m2
08:37 0.9 °C -0.2 °C 1022.2 hPa Calm     92% 0 mm 193.00 W/m2
08:42 1.1 °C -0.2 °C 1022.2 hPa Calm     91% 0 mm 211.00 W/m2
08:47 1.2 °C -0.1 °C 1022.2 hPa Calm     91% 0 mm 229.00 W/m2
08:52 1.3 °C 0 °C 1022.2 hPa Calm     91% 0 mm 243.00 W/m2
08:57 1.5 °C 0.1 °C 1022.2 hPa Calm     90% 0 mm 264.00 W/m2
09:02 1.7 °C 0.2 °C 1022.2 hPa Calm     90% 0 mm 272.00 W/m2
09:07 1.8 °C 0.2 °C 1022.2 hPa Calm   6.4 km/h 89% 0 mm 287.00 W/m2
09:12 2.1 °C 0.6 °C 1022.2 hPa Calm   3.2 km/h 90% 0 mm 287.00 W/m2
09:17 2.2 °C 0.6 °C 1022.2 hPa Calm     89% 0 mm 313.00 W/m2
09:22 2.3 °C 0.6 °C 1022.2 hPa Calm   3.2 km/h 88% 0 mm 338.00 W/m2
09:27 2.5 °C 0.9 °C 1021.9 hPa East 3.2 km/h 6.4 km/h 89% 0 mm 352.00 W/m2
09:32 2.6 °C 0.7 °C 1021.9 hPa Calm   6.4 km/h 87% 0 mm 364.00 W/m2
09:37 2.8 °C 0.8 °C 1021.9 hPa Calm   4.8 km/h 87% 0 mm 376.00 W/m2
09:42 2.9 °C 0.8 °C 1021.9 hPa Calm   1.6 km/h 86% 0 mm 387.00 W/m2
09:48 3.2 °C 1.2 °C 1021.9 hPa East 3.2 km/h 8 km/h 87% 0 mm 399.00 W/m2
09:53 3.3 °C 1.4 °C 1021.9 hPa East 3.2 km/h 8 km/h 87% 0 mm 410.00 W/m2
09:58 3.6 °C 1.4 °C 1021.9 hPa East 6.4 km/h 8 km/h 86% 0 mm 418.00 W/m2
10:03 3.8 °C 1.5 °C 1021.9 hPa Calm   1.6 km/h 85% 0 mm 429.00 W/m2
10:08 4 °C 1.7 °C 1021.9 hPa Calm     85% 0 mm 439.00 W/m2
10:13 4.2 °C 1.9 °C 1022.2 hPa Calm     85% 0 mm 448.00 W/m2
10:18 4.3 °C 1.5 °C 1022.2 hPa Calm     82% 0 mm 445.00 W/m2
10:23 4.4 °C 1.4 °C 1021.9 hPa Calm     81% 0 mm 466.00 W/m2
10:28 4.6 °C 1.6 °C 1022.2 hPa Calm   3.2 km/h 81% 0 mm 475.00 W/m2
10:33 4.7 °C 1.7 °C 1022.2 hPa East 1.6 km/h 3.2 km/h 81% 0 mm 483.00 W/m2
10:38 4.8 °C 2.1 °C 1022.2 hPa East 1.6 km/h 1.6 km/h 83% 0 mm 490.00 W/m2
10:43 4.8 °C 2.1 °C 1022.2 hPa Calm   3.2 km/h 83% 0 mm 496.00 W/m2
10:48 4.7 °C 2.2 °C 1022.2 hPa Calm   3.2 km/h 84% 0 mm 501.00 W/m2
10:53 4.8 °C 2.3 °C 1022.2 hPa Calm   1.6 km/h 84% 0 mm 508.00 W/m2
10:58 4.8 °C 2.2 °C 1022.2 hPa Calm   4.8 km/h 83% 0 mm 515.00 W/m2
11:03 5.1 °C 2.9 °C 1021.9 hPa Calm   1.6 km/h 86% 0 mm 520.00 W/m2
11:08 5.2 °C 2.2 °C 1021.9 hPa ENE 1.6 km/h 3.2 km/h 81% 0 mm 526.00 W/m2
11:13 5.4 °C 2.4 °C 1021.9 hPa NNW 1.6 km/h 8 km/h 81% 0 mm 531.00 W/m2
11:18 5.4 °C 2.4 °C 1021.9 hPa NNW 1.6 km/h 1.6 km/h 81% 0 mm 533.00 W/m2
11:23 5.4 °C 2.6 °C 1021.6 hPa NNW 1.6 km/h 1.6 km/h 82% 0 mm 538.00 W/m2
11:28 5.4 °C 2.4 °C 1021.6 hPa Calm   3.2 km/h 81% 0 mm 541.00 W/m2
11:33 5.4 °C 2.4 °C 1021.6 hPa NNW 3.2 km/h 3.2 km/h 81% 0 mm 545.00 W/m2
11:38 5.5 °C 2.7 °C 1021.6 hPa Calm   4.8 km/h 82% 0 mm 548.00 W/m2
11:43 5.5 °C 2.7 °C 1021.6 hPa NW 3.2 km/h 4.8 km/h 82% 0 mm 552.00 W/m2
11:48 5.5 °C 2.5 °C 1021.6 hPa NW 4.8 km/h 4.8 km/h 81% 0 mm 552.00 W/m2
11:53 5.5 °C 2.3 °C 1021.6 hPa NW 1.6 km/h 3.2 km/h 80% 0 mm 554.00 W/m2
11:58 5.4 °C 2.8 °C 1021.6 hPa NW 1.6 km/h 3.2 km/h 83% 0 mm 554.00 W/m2
12:03 5.3 °C 2.8 °C 1021.6 hPa NW 1.6 km/h 6.4 km/h 84% 0 mm 557.00 W/m2
12:08 5.1 °C 2.8 °C 1021.6 hPa NW 4.8 km/h 6.4 km/h 85% 0 mm 555.00 W/m2
12:13 4.7 °C 2.4 °C 1021.6 hPa Calm   1.6 km/h 85% 0 mm 557.00 W/m2
12:18 4.3 °C 2.2 °C 1021.6 hPa NW 3.2 km/h 4.8 km/h 86% 0 mm 557.00 W/m2
12:23 3.9 °C 2.1 °C 1021.6 hPa NNW 1.6 km/h 8 km/h 88% 0 mm 469.00 W/m2
12:28 3.4 °C 1.8 °C 1021.9 hPa NW 3.2 km/h 9.7 km/h 89% 0 mm 380.00 W/m2
12:33 2.9 °C 1.3 °C 1021.9 hPa Calm   6.4 km/h 89% 0 mm 299.00 W/m2
12:38 2.6 °C 1.2 °C 1021.6 hPa Calm     91% 0 mm 243.00 W/m2
12:43 2.3 °C 1 °C 1021.6 hPa Calm     91% 0 mm 425.00 W/m2
12:48 2.2 °C 1 °C 1021.6 hPa Calm     92% 0 mm 374.00 W/m2
12:53 2.2 °C 1.2 °C 1021.6 hPa Calm   1.6 km/h 93% 0 mm 541.00 W/m2
12:58 2.2 °C 1.2 °C 1021.2 hPa Calm     93% 0 mm 534.00 W/m2
13:03 2.3 °C 1.3 °C 1021.2 hPa Calm     93% 0 mm 531.00 W/m2
13:08 2.4 °C 1.6 °C 1021.2 hPa Calm     94% 0 mm 526.00 W/m2
13:13 2.6 °C 1.7 °C 1021.2 hPa Calm     94% 0 mm 522.00 W/m2
13:18 2.8 °C 1.9 °C 1020.9 hPa Calm     94% 0 mm 517.00 W/m2
13:23 3.2 °C 2.3 °C 1020.9 hPa Calm     94% 0 mm 510.00 W/m2
13:29 3.4 °C 2.4 °C 1020.9 hPa Calm     93% 0 mm 504.00 W/m2
13:34 3.8 °C 2.8 °C 1020.9 hPa Calm     93% 0 mm 497.00 W/m2
13:39 4 °C 2.9 °C 1020.9 hPa Calm     93% 0 mm 490.00 W/m2
13:44 4.2 °C 3.1 °C 1020.9 hPa Calm     92% 0 mm 482.00 W/m2
13:49 4.5 °C 3.3 °C 1020.9 hPa Calm     92% 0 mm 476.00 W/m2
13:54 4.7 °C 3.6 °C 1020.9 hPa Calm     92% 0 mm 468.00 W/m2
13:59 4.9 °C 3.6 °C 1020.9 hPa Calm     91% 0 mm 457.00 W/m2
14:04 5.1 °C 3.4 °C 1020.9 hPa SSE 6.4 km/h 6.4 km/h 89% 0 mm 448.00 W/m2
14:09 5.3 °C 3.3 °C 1020.9 hPa Calm     87% 0 mm 441.00 W/m2
14:14 5.5 °C 3.5 °C 1020.9 hPa Calm     87% 0 mm 431.00 W/m2
14:19 5.6 °C 3.3 °C 1020.9 hPa Calm     85% 0 mm 420.00 W/m2
14:24 5.8 °C 3.1 °C 1021.2 hPa Calm     83% 0 mm 411.00 W/m2
14:29 5.9 °C 3.2 °C 1021.2 hPa Calm     83% 0 mm 399.00 W/m2
14:34 6.1 °C 3.4 °C 1020.9 hPa Calm     83% 0 mm 387.00 W/m2
14:39 6.3 °C 3.8 °C 1020.9 hPa South 3.2 km/h 6.4 km/h 84% 0 mm 376.00 W/m2
14:44 6.1 °C 3.6 °C 1020.9 hPa Calm   1.6 km/h 84% 0 mm 366.00 W/m2
14:49 5.9 °C 3.6 °C 1020.9 hPa Calm     85% 0 mm 353.00 W/m2
14:54 5.7 °C 3.7 °C 1020.9 hPa Calm     87% 0 mm 341.00 W/m2
14:56 5.6 °C 3.6 °C 1020.9 hPa Calm     87% 0 mm 336.00 W/m2
15:01 5.3 °C 3.5 °C 1020.9 hPa Calm     88% 0 mm 323.00 W/m2
15:06 5.2 °C 3.2 °C 1020.9 hPa Calm     87% 0 mm 309.00 W/m2
15:11 5.2 °C 3.3 °C 1020.9 hPa Calm     88% 0 mm 295.00 W/m2
15:16 5.1 °C 3.3 °C 1020.9 hPa Calm     88% 0 mm 287.00 W/m2
15:21 5.1 °C 3.4 °C 1020.9 hPa Calm     89% 0 mm 271.00 W/m2
15:26 5 °C 3.3 °C 1020.9 hPa Calm     89% 0 mm 257.00 W/m2
15:31 4.9 °C 3.4 °C 1020.9 hPa Calm     90% 0 mm 239.00 W/m2
15:36 4.9 °C 3.4 °C 1020.9 hPa Calm     90% 0 mm 221.00 W/m2
15:41 4.9 °C 3.4 °C 1020.9 hPa Calm     90% 0 mm 204.00 W/m2
15:46 5 °C 3.7 °C 1020.9 hPa Calm     91% 0 mm 188.00 W/m2
15:51 4.9 °C 3.4 °C 1020.9 hPa Calm     90% 0 mm 169.00 W/m2
15:56 4.8 °C 3.3 °C 1020.9 hPa Calm     90% 0 mm 153.00 W/m2
16:01 4.8 °C 3.3 °C 1020.9 hPa Calm     90% 0 mm 132.00 W/m2
16:06 4.7 °C 3.4 °C 1020.9 hPa Calm     91% 0 mm 114.00 W/m2
16:11 4.6 °C 3.1 °C 1020.9 hPa Calm     90% 0 mm 98.00 W/m2
16:16 4.5 °C 3.2 °C 1021.2 hPa Calm     91% 0 mm 83.00 W/m2
16:21 4.3 °C 3 °C 1021.2 hPa Calm     91% 0 mm 67.00 W/m2
16:26 4.2 °C 2.8 °C 1021.2 hPa Calm     91% 0 mm 53.00 W/m2
16:31 4.1 °C 2.7 °C 1021.2 hPa Calm     91% 0 mm 40.00 W/m2
16:36 3.9 °C 2.6 °C 1021.2 hPa Calm     91% 0 mm 32.00 W/m2
16:41 3.7 °C 2.4 °C 1021.2 hPa Calm     91% 0 mm 23.00 W/m2
16:46 3.5 °C 2.2 °C 1021.2 hPa Calm     91% 0 mm 16.00 W/m2
16:51 3.3 °C 2 °C 1021.2 hPa Calm     91% 0 mm 12.00 W/m2
16:56 3.2 °C 2 °C 1021.2 hPa Calm     92% 0 mm 11.00 W/m2
17:01 3.1 °C 1.9 °C 1021.2 hPa Calm     92% 0 mm 9.00 W/m2
17:06 2.8 °C 1.7 °C 1021.6 hPa Calm     92% 0 mm 7.00 W/m2
17:11 2.6 °C 1.4 °C 1021.6 hPa Calm     92% 0 mm 5.00 W/m2
17:16 2.4 °C 1.3 °C 1021.6 hPa Calm     92% 0 mm 0.00 W/m2
17:21 2.3 °C 1.3 °C 1021.6 hPa Calm     93% 0 mm 0.00 W/m2
17:26 2.2 °C 1.2 °C 1021.6 hPa Calm     93% 0 mm 0.00 W/m2
17:32 2 °C 1 °C 1021.9 hPa Calm     93% 0 mm 0.00 W/m2
17:37 1.8 °C 0.8 °C 1021.9 hPa Calm     93% 0 mm 0.00 W/m2
17:42 1.7 °C 0.7 °C 1022.2 hPa Calm     93% 0 mm 0.00 W/m2
17:47 1.4 °C 0.4 °C 1022.2 hPa Calm     93% 0 mm 0.00 W/m2
17:52 1.2 °C 0.2 °C 1022.2 hPa Calm     93% 0 mm 0.00 W/m2
17:57 1.1 °C 0.1 °C 1022.2 hPa Calm     93% 0 mm 0.00 W/m2
18:02 1.1 °C 0.2 °C 1022.6 hPa Calm     94% 0 mm 0.00 W/m2
18:07 0.9 °C 0.1 °C 1022.2 hPa NW 1.6 km/h 4.8 km/h 94% 0 mm 0.00 W/m2
18:12 1 °C 0.2 °C 1022.2 hPa Calm     94% 0 mm 0.00 W/m2
18:17 1 °C 0.2 °C 1022.6 hPa Calm     94% 0 mm 0.00 W/m2
18:22 1.1 °C 0.3 °C 1022.2 hPa Calm     94% 0 mm 0.00 W/m2
18:27 1.2 °C 0.3 °C 1022.2 hPa Calm     94% 0 mm 0.00 W/m2
18:32 1.2 °C 0.5 °C 1022.2 hPa Calm     95% 0 mm 0.00 W/m2
18:37 1.3 °C 0.6 °C 1022.2 hPa Calm     95% 0 mm 0.00 W/m2
18:42 1.3 °C 0.6 °C 1022.6 hPa Calm     95% 0 mm 0.00 W/m2
18:47 1.3 °C 0.6 °C 1022.2 hPa Calm     95% 0 mm 0.00 W/m2
18:52 1.4 °C 0.6 °C 1022.6 hPa Calm     94% 0 mm 0.00 W/m2
18:57 1.4 °C 0.7 °C 1022.6 hPa Calm     95% 0 mm 0.00 W/m2
19:02 1.4 °C 0.7 °C 1022.6 hPa Calm     95% 0 mm 0.00 W/m2
19:07 1.5 °C 0.8 °C 1022.6 hPa Calm     95% 0 mm 0.00 W/m2
19:12 1.6 °C 0.8 °C 1022.6 hPa Calm     95% 0 mm 0.00 W/m2
19:17 1.7 °C 0.9 °C 1022.6 hPa Calm     95% 0 mm 0.00 W/m2
19:22 1.8 °C 1.1 °C 1022.2 hPa Calm     95% 0 mm 0.00 W/m2
19:27 1.8 °C 1.1 °C 1022.2 hPa Calm     95% 0 mm 0.00 W/m2
19:32 1.9 °C 1.2 °C 1022.6 hPa North 3.2 km/h 3.2 km/h 95% 0 mm 0.00 W/m2
19:37 2 °C 1.3 °C 1022.2 hPa NNE 3.2 km/h 4.8 km/h 95% 0 mm 0.00 W/m2
19:42 2.1 °C 1.3 °C 1022.2 hPa NNE 6.4 km/h 6.4 km/h 95% 0 mm 0.00 W/m2
19:47 2.1 °C 1.3 °C 1022.2 hPa Calm     95% 0 mm 0.00 W/m2
19:52 2.1 °C 1.4 °C 1022.2 hPa Calm     95% 0 mm 0.00 W/m2
19:57 2.2 °C 1.4 °C 1022.2 hPa Calm     95% 0 mm 0.00 W/m2
20:02 2.2 °C 1.4 °C 1022.2 hPa Calm     95% 0 mm 0.00 W/m2
20:07 2.2 °C 1.5 °C 1022.2 hPa Calm     95% 0 mm 0.00 W/m2
20:12 2.3 °C 1.6 °C 1022.6 hPa Calm     95% 0 mm 0.00 W/m2
20:17 2.3 °C 1.6 °C 1022.6 hPa Calm     95% 0 mm 0.00 W/m2
20:22 2.3 °C 1.6 °C 1022.6 hPa Calm     95% 0 mm 0.00 W/m2
20:27 2.3 °C 1.6 °C 1022.6 hPa Calm     95% 0 mm 0.00 W/m2
20:32 2.4 °C 1.7 °C 1022.6 hPa Calm     95% 0 mm 0.00 W/m2
20:37 2.4 °C 1.7 °C 1022.6 hPa Calm     95% 0 mm 0.00 W/m2
20:42 2.4 °C 1.7 °C 1022.6 hPa Calm     95% 0 mm 0.00 W/m2
20:47 2.4 °C 1.7 °C 1022.6 hPa Calm     95% 0 mm 0.00 W/m2
20:52 2.4 °C 1.7 °C 1022.6 hPa Calm     95% 0 mm 0.00 W/m2
20:58 2.6 °C 1.8 °C 1022.9 hPa Calm     95% 0 mm 0.00 W/m2
21:03 2.6 °C 1.8 °C 1022.9 hPa Calm     95% 0 mm 0.00 W/m2
21:08 2.6 °C 2.6 °C 1022.9 hPa Calm     100% 0 mm 0.00 W/m2
21:13 2.6 °C 1.9 °C 1022.9 hPa Calm     95% 0 mm 0.00 W/m2
21:18 2.7 °C 1.9 °C 1022.9 hPa Calm     95% 0 mm 0.00 W/m2
21:23 2.7 °C 1.9 °C 1023.2 hPa Calm     95% 0 mm 0.00 W/m2
21:28 2.7 °C 1.9 °C 1023.2 hPa Calm     95% 0 mm 0.00 W/m2
21:33 2.6 °C 1.9 °C 1023.2 hPa Calm     95% 0 mm 0.00 W/m2
21:38 2.6 °C 1.8 °C 1023.2 hPa Calm     95% 0 mm 0.00 W/m2
21:43 2.5 °C 1.8 °C 1023.2 hPa Calm     95% 0 mm 0.00 W/m2
21:48 2.4 °C 1.7 °C 1023.6 hPa Calm     95% 0 mm 0.00 W/m2
21:53 2.3 °C 1.6 °C 1023.6 hPa Calm     95% 0 mm 0.00 W/m2
21:58 2.2 °C 1.5 °C 1023.2 hPa Calm     95% 0 mm 0.00 W/m2
22:03 2.2 °C 1.4 °C 1023.2 hPa Calm     95% 0 mm 0.00 W/m2
22:08 2.1 °C 1.4 °C 1023.2 hPa Calm     95% 0 mm 0.00 W/m2
22:13 2.1 °C 1.3 °C 1023.2 hPa Calm     95% 0 mm 0.00 W/m2
22:18 2.1 °C 1.3 °C 1023.6 hPa Calm     95% 0 mm 0.00 W/m2
22:23 2 °C 1.3 °C 1023.6 hPa Calm     95% 0 mm 0.00 W/m2
22:28 1.9 °C 1.2 °C 1023.6 hPa Calm     95% 0 mm 0.00 W/m2
22:33 1.9 °C 1.2 °C 1023.6 hPa Calm     95% 0 mm 0.00 W/m2
22:38 1.9 °C 1.2 °C 1023.6 hPa Calm     95% 0 mm 0.00 W/m2
22:43 1.9 °C 1.2 °C 1023.6 hPa Calm     95% 0 mm 0.00 W/m2
22:48 1.8 °C 1.1 °C 1023.6 hPa Calm     95% 0 mm 0.00 W/m2
22:53 1.8 °C 0.9 °C 1023.6 hPa Calm     94% 0 mm 0.00 W/m2
22:58 1.7 °C 0.8 °C 1023.6 hPa Calm     94% 0 mm 0.00 W/m2
23:03 1.7 °C 0.9 °C 1023.6 hPa Calm     95% 0 mm 0.00 W/m2
23:08 1.7 °C 0.9 °C 1023.2 hPa Calm     95% 0 mm 0.00 W/m2
23:13 1.7 °C 0.9 °C 1023.2 hPa Calm     95% 0 mm 0.00 W/m2
23:18 1.7 °C 0.9 °C 1023.2 hPa NE 3.2 km/h 4.8 km/h 95% 0 mm 0.00 W/m2
23:23 1.7 °C 1 °C 1023.2 hPa NE 3.2 km/h 8 km/h 95% 0 mm 0.00 W/m2
23:28 1.7 °C 1 °C 1023.2 hPa ENE 1.6 km/h 6.4 km/h 95% 0 mm 0.00 W/m2
23:33 1.7 °C 1 °C 1023.2 hPa ENE 4.8 km/h 6.4 km/h 95% 0 mm 0.00 W/m2
23:38 1.8 °C 1.1 °C 1023.2 hPa ENE 3.2 km/h 4.8 km/h 95% 0 mm 0.00 W/m2
23:43 1.8 °C 1.1 °C 1023.2 hPa Calm   1.6 km/h 95% 0 mm 0.00 W/m2
23:48 1.8 °C 1.1 °C 1023.2 hPa Calm     95% 0 mm 0.00 W/m2
23:53 1.8 °C 1.1 °C 1023.2 hPa Calm     95% 0 mm 0.00 W/m2
23:58 1.9 °C 1.2 °C 1023.2 hPa Calm     95% 0 mm 0.00 W/m2
Foresthill Weather
 WU-history PHP script courtesy of   Juneau County Weather.
powered by Cumulus v1.9.3 (1059)
Ambient Weather VWS v14.00
Top Contact Website Map Copyright © 2007 - 2018 Foresthillweather.com Never base important decisions on this or any weather information obtained from the Internet